createdAt,value
2022-12-24T00:02:15.491Z,100729.31
2022-12-24T00:07:17.817Z,100729.47
2022-12-24T00:12:20.047Z,100743.19
2022-12-24T00:17:22.385Z,100724.00
2022-12-24T00:22:24.695Z,100755.34
2022-12-24T00:27:26.874Z,100724.28
2022-12-24T00:32:29.081Z,100746.78
2022-12-24T00:37:31.853Z,100726.75
2022-12-24T00:42:38.386Z,100737.97
2022-12-24T00:47:40.632Z,100751.94
2022-12-24T00:52:42.775Z,100738.41
2022-12-24T00:57:44.910Z,100726.38
2022-12-24T01:02:47.403Z,100744.38
2022-12-24T01:07:50.526Z,100764.38
2022-12-24T01:12:52.761Z,100726.59
2022-12-24T01:17:55.025Z,100729.25
2022-12-24T01:22:57.226Z,100733.91
2022-12-24T01:27:59.467Z,100725.50
2022-12-24T01:33:01.660Z,100722.69
2022-12-24T01:38:03.836Z,100702.97
2022-12-24T01:43:24.567Z,100676.66
2022-12-24T01:48:34.600Z,100711.41
2022-12-24T01:53:39.924Z,100694.28
2022-12-24T01:58:48.854Z,100706.75
2022-12-24T02:03:51.446Z,100704.63
2022-12-24T02:08:53.703Z,100733.97
2022-12-24T02:14:05.663Z,100725.72
2022-12-24T02:19:20.631Z,100707.28
2022-12-24T02:24:49.667Z,100690.38
2022-12-24T02:29:59.225Z,100705.31
2022-12-24T02:35:40.232Z,100711.47
2022-12-24T02:40:49.272Z,100712.53
2022-12-24T02:45:59.173Z,100737.50
2022-12-24T02:51:08.890Z,100735.06
2022-12-24T02:56:35.032Z,100730.31
2022-12-24T03:01:46.089Z,100738.94
2022-12-24T03:06:55.914Z,100717.97
2022-12-24T03:12:14.031Z,100694.63
2022-12-24T03:17:17.757Z,100706.63
2022-12-24T03:22:20.739Z,100697.13
2022-12-24T03:27:26.016Z,100722.06
2022-12-24T03:32:32.652Z,100718.16
2022-12-24T03:37:34.891Z,100717.97
2022-12-24T03:42:37.062Z,100717.84
2022-12-24T03:47:39.273Z,100700.75
2022-12-24T03:52:47.003Z,100704.28
2022-12-24T03:57:49.253Z,100685.09
2022-12-24T04:02:51.525Z,100703.81
2022-12-24T04:07:55.279Z,100671.78
2022-12-24T04:12:57.452Z,100725.19
2022-12-24T04:17:59.653Z,100702.41
2022-12-24T04:23:01.794Z,100710.53
2022-12-24T04:28:04.031Z,100686.75
2022-12-24T04:33:06.389Z,100665.75
2022-12-24T04:38:11.316Z,100689.72
2022-12-24T04:43:16.058Z,100695.28
2022-12-24T04:48:18.189Z,100693.06
2022-12-24T04:53:20.338Z,100671.97
2022-12-24T04:58:22.477Z,100683.38
2022-12-24T05:03:24.702Z,100678.31
2022-12-24T05:08:27.181Z,100700.94
2022-12-24T05:13:37.633Z,100709.03
2022-12-24T05:18:45.044Z,100676.09
2022-12-24T05:24:05.841Z,100698.84
2022-12-24T05:29:08.600Z,100719.94
2022-12-24T05:34:11.624Z,100722.16
2022-12-24T05:39:18.371Z,100699.56
2022-12-24T05:44:20.738Z,100715.53
2022-12-24T05:49:22.898Z,100725.22
2022-12-24T05:54:25.111Z,100724.19
2022-12-24T05:59:27.257Z,100715.59
2022-12-24T06:04:29.657Z,100720.56
2022-12-24T06:09:38.352Z,100734.97
2022-12-24T06:14:40.561Z,100732.50
2022-12-24T06:19:42.806Z,100709.75
2022-12-24T06:24:46.896Z,100727.22
2022-12-24T06:29:49.100Z,100731.53
2022-12-24T06:34:51.251Z,100733.69
2022-12-24T06:39:53.470Z,100702.19
2022-12-24T06:44:55.735Z,100716.16
2022-12-24T06:49:57.886Z,100756.34
2022-12-24T06:55:00.024Z,100741.88
2022-12-24T07:00:02.347Z,100722.97
2022-12-24T07:05:04.886Z,100735.50
2022-12-24T07:10:08.170Z,100750.03
2022-12-24T07:15:11.498Z,100759.34
2022-12-24T07:20:17.859Z,100766.28
2022-12-24T07:25:20.068Z,100741.28
2022-12-24T07:30:22.313Z,100726.09
2022-12-24T07:35:24.483Z,100719.88
2022-12-24T07:40:26.704Z,100749.88
2022-12-24T07:45:31.619Z,100761.34
2022-12-24T07:50:33.787Z,100741.66
2022-12-24T07:55:36.873Z,100767.22
2022-12-24T08:00:39.065Z,100752.09
2022-12-24T08:05:41.221Z,100742.84
2022-12-24T08:10:44.737Z,100738.44
2022-12-24T08:15:46.980Z,100748.41
2022-12-24T08:20:55.409Z,100736.72
2022-12-24T08:25:57.563Z,100748.00
2022-12-24T08:30:59.845Z,100747.03
2022-12-24T08:36:03.421Z,100761.97
2022-12-24T08:41:05.853Z,100774.94
2022-12-24T08:46:08.070Z,100730.38
2022-12-24T08:51:11.934Z,100729.25
2022-12-24T08:56:14.502Z,100748.13
2022-12-24T09:01:19.999Z,100739.47
2022-12-24T09:06:22.320Z,100717.75
2022-12-24T09:11:25.343Z,100700.28
2022-12-24T09:16:28.354Z,100700.28
2022-12-24T09:21:30.907Z,100641.22
2022-12-24T09:26:33.330Z,100667.03
2022-12-24T09:31:35.620Z,100671.00
2022-12-24T09:36:37.908Z,100686.59
2022-12-24T09:42:04.267Z,100716.00
2022-12-24T09:47:35.401Z,100720.34
2022-12-24T09:52:42.916Z,100701.47
2022-12-24T09:57:48.261Z,100697.09
2022-12-24T10:02:50.720Z,100715.16
2022-12-24T10:08:13.845Z,100711.34
2022-12-24T10:13:52.256Z,100711.97
2022-12-24T10:19:16.190Z,100670.00
2022-12-24T10:24:46.354Z,100672.50
2022-12-24T10:30:16.837Z,100674.16
2022-12-24T10:35:42.241Z,100593.75
2022-12-24T10:40:49.667Z,100603.94
2022-12-24T10:45:57.742Z,100630.91
2022-12-24T10:51:08.212Z,100603.22
2022-12-24T10:56:13.544Z,100628.13
2022-12-24T11:01:15.985Z,100574.75
2022-12-24T11:06:23.795Z,100613.56
2022-12-24T11:11:26.062Z,100598.44
2022-12-24T11:16:35.795Z,100602.34
2022-12-24T11:21:41.860Z,100595.69
2022-12-24T11:26:48.732Z,100605.59
2022-12-24T11:31:53.155Z,100630.00
2022-12-24T11:37:14.248Z,100630.78
2022-12-24T11:42:35.052Z,100585.34
2022-12-24T11:47:40.868Z,100547.41
2022-12-24T11:52:43.897Z,100536.88
2022-12-24T11:58:05.113Z,100562.97
2022-12-24T12:03:37.781Z,100588.19
2022-12-24T12:08:41.975Z,100598.25
2022-12-24T12:13:46.535Z,100518.50
2022-12-24T12:19:05.650Z,100578.06
2022-12-24T12:24:45.436Z,100570.31
2022-12-24T12:29:55.777Z,100557.63
2022-12-24T12:35:15.732Z,100547.53
2022-12-24T12:40:18.630Z,100560.72
2022-12-24T12:45:44.307Z,100561.38
2022-12-24T12:50:52.317Z,100548.03
2022-12-24T12:56:24.367Z,100502.88
2022-12-24T13:01:32.817Z,100531.88
2022-12-24T13:06:44.337Z,100539.31
2022-12-24T13:12:06.852Z,100532.06
2022-12-24T13:17:31.913Z,100530.59
2022-12-24T13:22:34.165Z,100515.72
2022-12-24T13:27:36.906Z,100531.25
2022-12-24T13:32:50.882Z,100535.13
2022-12-24T13:37:58.525Z,100530.59
2022-12-24T13:43:01.607Z,100580.22
2022-12-24T13:48:06.541Z,100556.16
2022-12-24T13:53:44.318Z,100553.78
2022-12-24T13:59:10.267Z,100553.44
2022-12-24T14:04:26.686Z,100539.69
2022-12-24T14:09:31.469Z,100569.56
2022-12-24T14:14:37.705Z,100548.94
2022-12-24T14:19:42.691Z,100567.63
2022-12-24T14:24:53.530Z,100566.44
2022-12-24T14:30:09.790Z,100580.41
2022-12-24T14:35:12.065Z,100591.59
2022-12-24T14:40:22.121Z,100583.63
2022-12-24T14:45:27.465Z,100573.84
2022-12-24T14:50:57.748Z,100577.53
2022-12-24T14:55:59.984Z,100551.97
2022-12-24T15:01:28.203Z,100545.41
2022-12-24T15:06:34.020Z,100586.91
2022-12-24T15:11:36.956Z,100491.66
2022-12-24T15:16:40.377Z,100566.19
2022-12-24T15:21:44.476Z,100544.44
2022-12-24T15:26:46.692Z,100503.38
2022-12-24T15:31:54.665Z,100543.44
2022-12-24T15:37:15.251Z,100566.31
2022-12-24T15:42:19.506Z,100566.69
2022-12-24T15:47:27.334Z,100597.31
2022-12-24T15:52:29.757Z,100577.06
2022-12-24T15:57:34.175Z,100616.72
2022-12-24T16:02:46.116Z,100624.25
2022-12-24T16:08:14.960Z,100621.84
2022-12-24T16:13:19.564Z,100579.97
2022-12-24T16:19:01.111Z,100632.25
2022-12-24T16:24:08.591Z,100631.47
2022-12-24T16:29:12.910Z,100575.25
2022-12-24T16:34:16.253Z,100639.69
2022-12-24T16:39:24.370Z,100650.75
2022-12-24T16:44:26.597Z,100639.41
2022-12-24T16:49:29.650Z,100643.59
2022-12-24T16:54:31.882Z,100643.81
2022-12-24T16:59:34.015Z,100667.53
2022-12-24T17:04:36.206Z,100664.03
2022-12-24T17:09:38.561Z,100662.53
2022-12-24T17:14:43.155Z,100623.78
2022-12-24T17:19:46.461Z,100663.72
2022-12-24T17:24:48.752Z,100682.41
2022-12-24T17:29:51.025Z,100666.50
2022-12-24T17:34:53.283Z,100698.56
2022-12-24T17:39:56.162Z,100695.84
2022-12-24T17:44:58.386Z,100692.81
2022-12-24T17:50:00.644Z,100688.81
2022-12-24T17:55:02.814Z,100701.53
2022-12-24T18:00:05.810Z,100657.47
2022-12-24T18:05:08.324Z,100657.16
2022-12-24T18:10:10.933Z,100718.72
2022-12-24T18:15:13.148Z,100715.34
2022-12-24T18:20:15.420Z,100724.69
2022-12-24T18:25:17.893Z,100731.72
2022-12-24T18:30:25.829Z,100724.88
2022-12-24T18:35:29.954Z,100715.97
2022-12-24T18:40:32.186Z,100718.09
2022-12-24T18:45:34.442Z,100718.59
2022-12-24T18:50:41.179Z,100727.56
2022-12-24T18:55:43.473Z,100752.31
2022-12-24T19:00:46.580Z,100751.38
2022-12-24T19:05:48.811Z,100751.78
2022-12-24T19:10:53.789Z,100799.00
2022-12-24T19:15:58.438Z,100791.28
2022-12-24T19:21:08.914Z,100799.34
2022-12-24T19:26:11.925Z,100794.59
2022-12-24T19:31:17.798Z,100802.09
2022-12-24T19:36:23.000Z,100809.28
2022-12-24T19:41:28.475Z,100808.09
2022-12-24T19:46:33.796Z,100813.66
2022-12-24T19:51:36.860Z,100790.41
2022-12-24T19:56:39.996Z,100828.16
2022-12-24T20:01:42.295Z,100797.38
2022-12-24T20:06:44.863Z,100809.72
2022-12-24T20:11:50.901Z,100851.00
2022-12-24T20:16:53.132Z,100806.75
2022-12-24T20:22:00.268Z,100828.53
2022-12-24T20:27:02.601Z,100838.19
2022-12-24T20:32:14.960Z,100869.72
2022-12-24T20:37:17.153Z,100853.94
2022-12-24T20:42:19.359Z,100847.78
2022-12-24T20:47:21.553Z,100845.09
2022-12-24T20:52:23.946Z,100875.66
2022-12-24T20:57:36.107Z,100867.13
2022-12-24T21:02:41.880Z,100902.09
2022-12-24T21:07:45.500Z,100872.69
2022-12-24T21:12:50.675Z,100917.63
2022-12-24T21:17:53.842Z,100909.69
2022-12-24T21:23:01.107Z,100906.09
2022-12-24T21:28:03.885Z,100844.84
2022-12-24T21:33:06.041Z,100917.44
2022-12-24T21:38:08.515Z,100916.81
2022-12-24T21:43:12.640Z,100939.00
2022-12-24T21:48:33.478Z,100866.44
2022-12-24T21:53:54.462Z,100932.34
2022-12-24T21:58:56.775Z,100930.97
2022-12-24T22:04:08.425Z,100929.00
2022-12-24T22:09:29.777Z,100870.16
2022-12-24T22:14:36.002Z,100914.06
2022-12-24T22:19:41.740Z,100929.59
2022-12-24T22:24:43.957Z,100894.22
2022-12-24T22:29:46.373Z,100861.75
2022-12-24T22:34:49.909Z,100934.66
2022-12-24T22:39:55.224Z,100939.38
2022-12-24T22:44:57.418Z,100867.41
2022-12-24T22:49:59.632Z,100939.75
2022-12-24T22:55:02.200Z,100960.47
2022-12-24T23:00:28.773Z,100894.28
2022-12-24T23:05:31.052Z,100914.25
2022-12-24T23:10:33.576Z,100909.91
2022-12-24T23:15:39.760Z,100929.59
2022-12-24T23:20:45.727Z,100922.75
2022-12-24T23:25:47.888Z,100898.97
2022-12-24T23:30:58.269Z,100885.97
2022-12-24T23:36:03.962Z,100906.56
2022-12-24T23:41:07.954Z,100954.84
2022-12-24T23:46:14.157Z,100933.47
2022-12-24T23:51:19.912Z,100920.31
2022-12-24T23:56:25.923Z,100971.00
